createdAt,value
2024-03-02T00:00:54.292Z,98984.59
2024-03-02T00:03:22.208Z,98995.50
2024-03-02T00:05:53.672Z,99013.16
2024-03-02T00:08:26.930Z,98989.41
2024-03-02T00:10:59.637Z,99006.63
2024-03-02T00:13:27.552Z,98999.72
2024-03-02T00:15:57.421Z,99027.19
2024-03-02T00:18:27.802Z,98979.97
2024-03-02T00:20:57.227Z,99010.25
2024-03-02T00:23:26.357Z,99005.53
2024-03-02T00:25:56.862Z,98977.72
2024-03-02T00:28:26.414Z,99001.81
2024-03-02T00:31:06.777Z,99019.28
2024-03-02T00:33:35.898Z,99016.00
2024-03-02T00:36:04.292Z,98979.94
2024-03-02T00:38:32.423Z,98953.38
2024-03-02T00:41:01.449Z,98970.59
2024-03-02T00:43:47.462Z,98986.75
2024-03-02T00:46:18.729Z,98997.09
2024-03-02T00:48:55.481Z,98947.88
2024-03-02T00:51:24.299Z,98969.09
2024-03-02T00:53:53.500Z,98966.66
2024-03-02T00:56:21.502Z,99005.56
2024-03-02T00:58:49.099Z,98986.75
2024-03-02T01:01:18.246Z,98989.94
2024-03-02T01:03:45.931Z,98998.56
2024-03-02T01:06:14.038Z,98997.84
2024-03-02T01:08:41.676Z,99008.09
2024-03-02T01:11:09.641Z,98956.28
2024-03-02T01:13:37.461Z,99022.06
2024-03-02T01:16:06.241Z,99023.19
2024-03-02T01:18:35.318Z,98980.47
2024-03-02T01:21:02.983Z,98991.34
2024-03-02T01:23:30.643Z,98996.53
2024-03-02T01:25:58.232Z,99009.75
2024-03-02T01:28:25.797Z,99004.28
2024-03-02T01:30:53.457Z,99014.44
2024-03-02T01:33:22.423Z,99012.06
2024-03-02T01:35:51.387Z,98954.44
2024-03-02T01:38:18.916Z,98962.44
2024-03-02T01:40:46.591Z,98953.63
2024-03-02T01:43:14.195Z,98971.38
2024-03-02T01:45:41.831Z,99004.88
2024-03-02T01:48:10.008Z,98984.25
2024-03-02T01:50:39.052Z,99006.28
2024-03-02T01:53:07.939Z,98987.84
2024-03-02T01:55:35.840Z,99004.47
2024-03-02T01:58:03.883Z,98983.63
2024-03-02T02:00:31.853Z,99013.91
2024-03-02T02:02:59.859Z,98989.19
2024-03-02T02:05:27.410Z,98979.72
2024-03-02T02:07:55.106Z,98994.19
2024-03-02T02:10:23.943Z,98989.28
2024-03-02T02:12:51.582Z,99023.06
2024-03-02T02:15:27.051Z,99024.84
2024-03-02T02:17:54.806Z,98967.59
2024-03-02T02:20:22.343Z,98974.41
2024-03-02T02:22:58.819Z,99011.16
2024-03-02T02:25:26.841Z,98983.69
2024-03-02T02:27:54.979Z,98995.97
2024-03-02T02:30:24.232Z,98969.81
2024-03-02T02:32:51.969Z,99022.53
2024-03-02T02:35:19.687Z,99015.16
2024-03-02T02:37:47.639Z,98990.88
2024-03-02T02:40:17.254Z,98969.44
2024-03-02T02:42:44.862Z,99005.31
2024-03-02T02:45:14.297Z,99012.91
2024-03-02T02:47:42.588Z,98986.31
2024-03-02T02:50:10.857Z,98993.16
2024-03-02T02:52:41.040Z,99013.56
2024-03-02T02:55:09.987Z,98961.88
2024-03-02T02:57:40.898Z,98978.97
2024-03-02T03:00:15.098Z,98997.03
2024-03-02T03:02:43.709Z,99001.09
2024-03-02T03:05:13.250Z,99012.25
2024-03-02T03:07:41.754Z,98964.00
2024-03-02T03:10:10.017Z,98962.91
2024-03-02T03:12:38.963Z,99003.38
2024-03-02T03:15:08.191Z,98986.78
2024-03-02T03:17:36.410Z,98990.69
2024-03-02T03:20:05.259Z,98981.97
2024-03-02T03:22:33.140Z,98984.69
2024-03-02T03:25:00.978Z,99005.97
2024-03-02T03:27:28.760Z,98983.06
2024-03-02T03:29:57.696Z,99016.50
2024-03-02T03:32:25.999Z,99005.03
2024-03-02T03:34:53.673Z,99018.31
2024-03-02T03:37:21.328Z,99000.59
2024-03-02T03:39:49.070Z,99013.13
2024-03-02T03:42:17.163Z,98993.13
2024-03-02T03:44:44.760Z,98987.00
2024-03-02T03:47:13.686Z,98991.75
2024-03-02T03:49:41.255Z,98988.13
2024-03-02T03:52:08.851Z,98984.03
2024-03-02T03:54:38.244Z,98980.38
2024-03-02T03:57:06.113Z,98971.25
2024-03-02T03:59:34.233Z,99002.69
2024-03-02T04:02:01.812Z,98969.94
2024-03-02T04:04:31.104Z,98991.28
2024-03-02T04:06:58.742Z,99008.75
2024-03-02T04:09:26.723Z,99005.16
2024-03-02T04:11:54.313Z,98996.88
2024-03-02T04:14:21.886Z,98992.78
2024-03-02T04:16:49.529Z,98991.88
2024-03-02T04:19:17.124Z,98986.16
2024-03-02T04:21:45.989Z,98998.59
2024-03-02T04:24:13.563Z,99015.41
2024-03-02T04:26:41.204Z,99022.72
2024-03-02T04:29:08.911Z,99033.88
2024-03-02T04:31:36.550Z,99018.13
2024-03-02T04:34:04.320Z,98996.31
2024-03-02T04:36:32.048Z,99001.09
2024-03-02T04:39:00.902Z,99001.97
2024-03-02T04:41:28.881Z,99001.66
2024-03-02T04:43:56.914Z,98981.53
2024-03-02T04:46:25.897Z,98985.06
2024-03-02T04:48:56.918Z,99025.84
2024-03-02T04:51:24.669Z,98980.59
2024-03-02T04:53:52.273Z,98989.78
2024-03-02T04:56:45.480Z,98988.63
2024-03-02T04:59:13.140Z,98992.75
2024-03-02T05:01:40.701Z,98996.91
2024-03-02T05:04:08.220Z,99005.88
2024-03-02T05:06:35.832Z,98990.22
2024-03-02T05:09:03.395Z,99013.31
2024-03-02T05:11:57.645Z,99012.22
2024-03-02T05:14:24.256Z,99015.34
2024-03-02T05:16:51.821Z,98992.25
2024-03-02T05:19:19.424Z,98984.31
2024-03-02T05:21:47.031Z,98996.13
2024-03-02T05:24:14.619Z,98996.56
2024-03-02T05:26:43.457Z,98961.38
2024-03-02T05:29:11.089Z,98979.19
2024-03-02T05:31:38.622Z,98987.72
2024-03-02T05:34:06.578Z,99017.34
2024-03-02T05:36:34.212Z,99018.50
2024-03-02T05:39:02.359Z,99022.47
2024-03-02T05:41:29.904Z,99016.25
2024-03-02T05:43:58.789Z,99014.47
2024-03-02T05:46:26.327Z,99025.28
2024-03-02T05:48:53.885Z,99031.94
2024-03-02T05:51:21.515Z,99007.16
2024-03-02T05:53:49.058Z,99025.88
2024-03-02T05:56:16.610Z,98995.69
2024-03-02T05:58:58.877Z,99005.13
2024-03-02T06:01:29.868Z,99002.81
2024-03-02T06:03:57.921Z,99018.44
2024-03-02T06:06:25.685Z,99045.16
2024-03-02T06:08:53.521Z,99020.88
2024-03-02T06:11:21.712Z,99017.63
2024-03-02T06:13:49.344Z,99013.72
2024-03-02T06:16:16.928Z,99012.00
2024-03-02T06:18:45.798Z,99060.44
2024-03-02T06:21:13.422Z,99057.63
2024-03-02T06:23:40.966Z,99043.59
2024-03-02T06:26:08.690Z,99050.81
2024-03-02T06:28:36.347Z,99049.00
2024-03-02T06:31:04.308Z,99045.06
2024-03-02T06:33:31.977Z,99046.59
2024-03-02T06:36:00.847Z,99046.59
2024-03-02T06:38:28.458Z,99001.50
2024-03-02T06:40:56.217Z,99007.69
2024-03-02T06:43:24.335Z,99011.53
2024-03-02T06:45:52.003Z,99015.25
2024-03-02T06:48:21.245Z,99050.22
2024-03-02T06:50:49.088Z,99054.69
2024-03-02T06:53:18.925Z,99067.31
2024-03-02T06:55:46.578Z,99063.88
2024-03-02T06:58:14.238Z,99019.84
2024-03-02T07:00:41.756Z,99031.19
2024-03-02T07:03:09.437Z,99064.53
2024-03-02T07:05:37.241Z,99061.28
2024-03-02T07:08:06.286Z,99072.00
2024-03-02T07:10:35.179Z,99069.47
2024-03-02T07:13:02.961Z,99039.41
2024-03-02T07:15:55.754Z,99034.13
2024-03-02T07:18:23.369Z,99041.34
2024-03-02T07:20:51.007Z,99065.66
2024-03-02T07:23:18.646Z,99044.63
2024-03-02T07:28:18.233Z,99037.06
2024-03-02T07:30:45.772Z,99072.84
2024-03-02T07:33:13.296Z,99083.91
2024-03-02T07:35:40.824Z,99073.59
2024-03-02T07:38:08.964Z,99078.50
2024-03-02T07:40:36.521Z,99061.72
2024-03-02T07:43:05.732Z,99053.31
2024-03-02T07:45:33.288Z,99088.06
2024-03-02T07:48:00.976Z,99041.69
2024-03-02T07:50:28.566Z,99048.84
2024-03-02T07:52:56.128Z,99093.97
2024-03-02T07:55:24.905Z,99067.50
2024-03-02T07:57:52.718Z,99071.97
2024-03-02T08:00:21.791Z,99061.84
2024-03-02T08:02:49.372Z,99114.38
2024-03-02T08:05:17.017Z,99108.75
2024-03-02T08:07:45.974Z,99081.16
2024-03-02T08:10:13.931Z,99102.28
2024-03-02T08:12:41.790Z,99085.91
2024-03-02T08:15:09.819Z,99082.50
2024-03-02T08:17:38.835Z,99089.38
2024-03-02T08:20:09.151Z,99080.94
2024-03-02T08:22:36.759Z,99073.16
2024-03-02T08:25:04.740Z,99099.06
2024-03-02T08:27:33.317Z,99104.78
2024-03-02T08:30:00.961Z,99088.81
2024-03-02T08:32:28.643Z,99103.69
2024-03-02T08:34:57.564Z,99102.16
2024-03-02T08:37:25.073Z,99110.72
2024-03-02T08:39:52.692Z,99092.16
2024-03-02T08:42:20.463Z,99104.44
2024-03-02T08:44:48.022Z,99115.59
2024-03-02T08:47:15.743Z,99105.47
2024-03-02T08:49:43.327Z,99084.78
2024-03-02T08:52:12.244Z,99085.91
2024-03-02T08:54:39.915Z,99093.47
2024-03-02T08:57:08.298Z,99117.94
2024-03-02T08:59:36.110Z,99103.19
2024-03-02T09:02:03.814Z,99136.94
2024-03-02T09:04:34.904Z,99135.72
2024-03-02T09:07:03.109Z,99113.66
2024-03-02T09:09:33.105Z,99072.38
2024-03-02T09:12:00.874Z,99084.97
2024-03-02T09:14:28.484Z,99096.50
2024-03-02T09:16:56.164Z,99114.34
2024-03-02T09:19:23.717Z,99109.19
2024-03-02T09:21:51.713Z,99121.63
2024-03-02T09:24:19.308Z,99127.16
2024-03-02T09:26:48.183Z,99102.34
2024-03-02T09:29:15.853Z,99099.09
2024-03-02T09:31:43.588Z,99118.44
2024-03-02T09:34:11.525Z,99115.53
2024-03-02T09:36:39.197Z,99120.75
2024-03-02T09:39:06.973Z,99099.56
2024-03-02T09:41:35.429Z,99094.13
2024-03-02T09:44:04.773Z,99129.75
2024-03-02T09:46:32.530Z,99129.53
2024-03-02T09:49:00.737Z,99109.31
2024-03-02T09:51:28.436Z,99145.13
2024-03-02T09:54:06.333Z,99150.47
2024-03-02T09:56:40.811Z,99103.97
2024-03-02T09:59:09.866Z,99138.19
2024-03-02T10:01:37.419Z,99115.97
2024-03-02T10:04:07.376Z,99119.19
2024-03-02T10:06:34.978Z,99150.16
2024-03-02T10:09:02.533Z,99126.53
2024-03-02T10:11:32.293Z,99097.19
2024-03-02T10:14:12.185Z,99089.38
2024-03-02T10:16:42.054Z,99103.44
2024-03-02T10:19:18.063Z,99097.66
2024-03-02T10:21:45.810Z,99095.97
2024-03-02T10:24:13.853Z,99124.25
2024-03-02T10:26:42.306Z,99126.03
2024-03-02T10:29:11.443Z,99116.69
2024-03-02T10:31:40.135Z,99135.69
2024-03-02T10:34:08.226Z,99104.00
2024-03-02T10:36:36.908Z,99102.06
2024-03-02T10:39:05.156Z,99106.97
2024-03-02T10:41:35.704Z,99135.28
2024-03-02T10:44:05.179Z,99122.66
2024-03-02T10:46:35.167Z,99083.06
2024-03-02T10:49:07.639Z,99100.81
2024-03-02T10:51:37.673Z,99133.50
2024-03-02T10:54:07.265Z,99083.44
2024-03-02T10:56:37.722Z,99109.16
2024-03-02T10:59:18.613Z,99096.13
2024-03-02T11:01:49.729Z,99084.97
2024-03-02T11:04:19.880Z,99114.41
2024-03-02T11:06:50.984Z,99096.13
2024-03-02T11:09:21.992Z,99085.41
2024-03-02T11:11:58.365Z,99106.72
2024-03-02T11:14:27.155Z,99066.91
2024-03-02T11:16:56.363Z,99101.22
2024-03-02T11:19:25.498Z,99078.88
2024-03-02T11:21:53.852Z,99068.72
2024-03-02T11:24:37.420Z,99073.50
2024-03-02T11:27:12.544Z,99084.22
2024-03-02T11:29:47.535Z,99124.00
2024-03-02T11:32:22.334Z,99110.25
2024-03-02T11:34:51.452Z,99089.16
2024-03-02T11:37:21.317Z,99082.94
2024-03-02T11:39:52.300Z,99088.50
2024-03-02T11:42:20.257Z,99085.56
2024-03-02T11:44:49.180Z,99045.78
2024-03-02T11:47:18.726Z,99056.94
2024-03-02T11:49:51.239Z,99100.41
2024-03-02T11:52:20.428Z,99094.66
2024-03-02T11:54:49.830Z,99043.31
2024-03-02T11:57:19.078Z,99090.44
2024-03-02T11:59:46.598Z,99064.13
2024-03-02T12:02:19.290Z,99080.25
2024-03-02T12:04:49.870Z,99060.19
2024-03-02T12:07:21.742Z,99038.38
2024-03-02T12:09:49.428Z,99062.47
2024-03-02T12:12:19.911Z,99038.13
2024-03-02T12:14:56.134Z,99049.31
2024-03-02T12:17:24.269Z,99057.78
2024-03-02T12:19:53.825Z,99024.75
2024-03-02T12:22:21.360Z,99025.19
2024-03-02T12:24:49.296Z,99048.59
2024-03-02T12:27:17.598Z,99069.75
2024-03-02T12:29:45.292Z,99027.72
2024-03-02T12:32:13.000Z,99038.03
2024-03-02T12:34:41.666Z,99055.50
2024-03-02T12:37:14.617Z,98999.47
2024-03-02T12:39:42.349Z,99055.44
2024-03-02T12:42:09.991Z,99003.69
2024-03-02T12:44:37.734Z,99028.94
2024-03-02T12:47:05.658Z,99022.19
2024-03-02T12:49:33.542Z,99054.16
2024-03-02T12:52:01.283Z,99056.59
2024-03-02T12:54:30.259Z,99024.41
2024-03-02T12:56:58.964Z,99045.81
2024-03-02T12:59:27.788Z,99034.22
2024-03-02T13:01:58.378Z,99004.75
2024-03-02T13:04:26.737Z,99038.28
2024-03-02T13:06:55.489Z,99048.22
2024-03-02T13:09:23.309Z,99040.72
2024-03-02T13:11:52.515Z,99021.81
2024-03-02T13:14:20.445Z,99024.50
2024-03-02T13:16:49.230Z,99001.94
2024-03-02T13:19:16.924Z,99027.44
2024-03-02T13:21:44.809Z,99009.81
2024-03-02T13:24:12.391Z,99066.81
2024-03-02T13:26:41.527Z,99037.75
2024-03-02T13:29:10.532Z,99042.00
2024-03-02T13:31:38.079Z,99016.66
2024-03-02T13:34:05.807Z,99014.94
2024-03-02T13:36:33.447Z,98990.44
2024-03-02T13:39:01.051Z,99009.78
2024-03-02T13:41:28.837Z,99042.69
2024-03-02T13:43:56.399Z,99036.44
2024-03-02T13:46:25.289Z,99012.56
2024-03-02T13:48:53.578Z,99036.75
2024-03-02T13:51:21.133Z,99006.97
2024-03-02T13:53:48.695Z,99026.47
2024-03-02T13:56:16.292Z,98995.13
2024-03-02T13:58:47.132Z,99012.47
2024-03-02T14:01:15.110Z,99038.75
2024-03-02T14:03:44.202Z,98986.19
2024-03-02T14:06:11.780Z,99030.63
2024-03-02T14:08:39.378Z,99044.31
2024-03-02T14:11:06.950Z,99045.25
2024-03-02T14:13:34.539Z,99039.84
2024-03-02T14:16:02.223Z,99033.38
2024-03-02T14:18:30.050Z,98993.28
2024-03-02T14:20:58.927Z,99030.34
2024-03-02T14:23:29.260Z,98990.31
2024-03-02T14:25:56.808Z,98982.00
2024-03-02T14:28:43.823Z,98977.13
2024-03-02T14:31:11.881Z,99038.69
2024-03-02T14:33:39.618Z,99018.97
2024-03-02T14:36:09.302Z,99009.16
2024-03-02T14:38:36.911Z,99022.94
2024-03-02T14:41:04.730Z,98979.19
2024-03-02T14:43:32.541Z,98997.75
2024-03-02T14:46:00.650Z,99006.19
2024-03-02T14:48:28.378Z,98991.59
2024-03-02T14:50:55.936Z,99017.75
2024-03-02T14:53:24.904Z,99019.56
2024-03-02T14:55:52.484Z,99012.94
2024-03-02T14:58:20.504Z,99041.59
2024-03-02T15:00:48.253Z,99008.19
2024-03-02T15:03:16.110Z,99039.97
2024-03-02T15:05:43.709Z,98995.44
2024-03-02T15:08:11.646Z,99050.75
2024-03-02T15:10:41.918Z,99016.47
2024-03-02T15:13:10.729Z,99008.66
2024-03-02T15:15:38.346Z,99011.03
2024-03-02T15:18:06.855Z,99005.19
2024-03-02T15:20:34.740Z,98991.16
2024-03-02T15:23:01.320Z,99007.03
2024-03-02T15:25:28.884Z,98995.22
2024-03-02T15:27:58.327Z,98988.31
2024-03-02T15:30:25.915Z,99002.88
2024-03-02T15:32:53.482Z,98997.41
2024-03-02T15:35:21.110Z,99025.13
2024-03-02T15:37:48.683Z,99057.13
2024-03-02T15:40:16.268Z,98980.50
2024-03-02T15:42:44.073Z,99042.06
2024-03-02T15:45:12.999Z,99005.69
2024-03-02T15:47:41.108Z,98989.00
2024-03-02T15:50:09.502Z,98999.13
2024-03-02T15:52:37.318Z,99019.03
2024-03-02T15:55:07.356Z,98998.34
2024-03-02T15:57:35.356Z,98965.19
2024-03-02T16:00:02.980Z,98982.75
2024-03-02T16:02:31.858Z,99000.00
2024-03-02T16:04:59.427Z,98989.69
2024-03-02T16:07:26.972Z,98993.50
2024-03-02T16:09:54.550Z,98981.09
2024-03-02T16:12:22.883Z,99052.72
2024-03-02T16:14:50.476Z,98987.94
2024-03-02T16:17:18.097Z,98997.31
2024-03-02T16:19:48.610Z,98967.31
2024-03-02T16:22:16.302Z,98996.97
2024-03-02T16:24:43.848Z,98986.56
2024-03-02T16:27:11.456Z,99017.47
2024-03-02T16:29:39.359Z,98979.66
2024-03-02T16:32:07.362Z,98962.22
2024-03-02T16:34:34.940Z,99001.63
2024-03-02T16:37:04.518Z,98999.72
2024-03-02T16:39:32.562Z,98988.28
2024-03-02T16:42:00.372Z,99020.53
2024-03-02T16:44:27.937Z,98997.34
2024-03-02T16:46:55.526Z,99002.69
2024-03-02T16:49:23.106Z,99014.00
2024-03-02T16:51:50.749Z,99032.72
2024-03-02T16:54:19.631Z,98984.41
2024-03-02T16:56:47.144Z,99021.72
2024-03-02T16:59:14.739Z,98980.84
2024-03-02T17:01:42.338Z,99035.06
2024-03-02T17:04:10.983Z,99005.22
2024-03-02T17:06:38.735Z,99037.63
2024-03-02T17:09:06.536Z,98997.16
2024-03-02T17:11:36.149Z,99037.63
2024-03-02T17:14:04.734Z,99000.53
2024-03-02T17:16:32.303Z,99035.41
2024-03-02T17:19:00.000Z,99000.56
2024-03-02T17:21:28.021Z,99047.63
2024-03-02T17:23:55.589Z,98983.59
2024-03-02T17:26:23.165Z,99032.94
2024-03-02T17:28:52.042Z,99040.31
2024-03-02T17:31:19.569Z,99025.78
2024-03-02T17:33:47.153Z,99027.59
2024-03-02T17:36:15.479Z,99078.44
2024-03-02T17:38:43.045Z,98999.97
2024-03-02T17:41:11.715Z,99038.34
2024-03-02T17:43:40.416Z,99014.91
2024-03-02T17:46:09.344Z,99044.75
2024-03-02T17:48:36.978Z,99044.84
2024-03-02T17:51:08.221Z,99077.25
2024-03-02T17:53:35.764Z,99090.59
2024-03-02T17:56:03.298Z,99053.84
2024-03-02T17:58:30.860Z,99038.78
2024-03-02T18:00:58.490Z,99086.84
2024-03-02T18:03:27.382Z,99077.63
2024-03-02T18:05:55.217Z,99034.66
2024-03-02T18:08:22.828Z,99051.91
2024-03-02T18:10:50.533Z,99061.41
2024-03-02T18:13:18.199Z,99037.22
2024-03-02T18:15:47.308Z,99056.41
2024-03-02T18:18:15.987Z,99055.69
2024-03-02T18:20:46.067Z,99108.63
2024-03-02T18:23:13.960Z,99056.47
2024-03-02T18:25:47.171Z,99073.53
2024-03-02T18:28:15.008Z,99074.63
2024-03-02T18:30:43.024Z,99094.22
2024-03-02T18:33:10.594Z,99073.00
2024-03-02T18:35:38.157Z,99103.75
2024-03-02T18:38:07.078Z,99094.72
2024-03-02T18:40:34.799Z,99111.59
2024-03-02T18:43:03.309Z,99096.72
2024-03-02T18:45:31.079Z,99090.09
2024-03-02T18:48:01.225Z,99104.59
2024-03-02T18:50:30.649Z,99106.16
2024-03-02T18:52:58.322Z,99110.34
2024-03-02T18:55:27.825Z,99103.38
2024-03-02T18:57:56.440Z,99115.19
2024-03-02T19:00:24.068Z,99107.31
2024-03-02T19:02:51.637Z,99097.84
2024-03-02T19:05:19.196Z,99104.91
2024-03-02T19:07:46.784Z,99099.38
2024-03-02T19:10:14.403Z,99106.03
2024-03-02T19:12:44.149Z,99104.84
2024-03-02T19:15:12.903Z,99116.00
2024-03-02T19:17:40.671Z,99104.72
2024-03-02T19:20:11.788Z,99104.69
2024-03-02T19:25:14.547Z,99098.81
2024-03-02T19:27:43.694Z,99091.00
2024-03-02T19:30:12.479Z,99085.19
2024-03-02T19:32:40.086Z,99084.50
2024-03-02T19:35:08.696Z,99084.50
2024-03-02T19:37:37.181Z,99070.00
2024-03-02T19:40:06.501Z,99095.50
2024-03-02T19:42:35.874Z,99077.31
2024-03-02T19:45:06.405Z,99078.75
2024-03-02T19:47:34.506Z,99089.84
2024-03-02T19:50:02.100Z,99084.72
2024-03-02T19:52:29.671Z,99091.38
2024-03-02T19:54:57.848Z,99077.00
2024-03-02T19:57:26.364Z,99078.97
2024-03-02T19:59:54.011Z,99072.09
2024-03-02T20:02:27.904Z,99075.44
2024-03-02T20:04:55.502Z,99079.38
2024-03-02T20:07:23.093Z,99083.34
2024-03-02T20:09:51.633Z,99075.75
2024-03-02T20:12:19.785Z,99078.38
2024-03-02T20:14:47.398Z,99080.09
2024-03-02T20:17:16.034Z,99075.41
2024-03-02T20:19:46.214Z,99070.69
2024-03-02T20:22:14.179Z,99080.47
2024-03-02T20:24:41.873Z,99086.78
2024-03-02T20:27:09.418Z,99075.50
2024-03-02T20:29:36.984Z,99081.38
2024-03-02T20:32:04.840Z,99079.91
2024-03-02T20:34:32.389Z,99086.28
2024-03-02T20:37:02.030Z,99073.88
2024-03-02T20:39:30.389Z,99064.47
2024-03-02T20:41:57.997Z,99066.97
2024-03-02T20:44:27.114Z,99060.25
2024-03-02T20:46:55.302Z,99062.09
2024-03-02T20:49:24.723Z,99060.47
2024-03-02T20:51:52.453Z,99066.03
2024-03-02T20:54:21.483Z,99062.00
2024-03-02T20:56:49.970Z,99061.19
2024-03-02T20:59:18.749Z,99062.75
2024-03-02T21:01:49.058Z,99050.88
2024-03-02T21:04:16.783Z,99062.06
2024-03-02T21:06:44.803Z,99046.31
2024-03-02T21:09:12.443Z,99042.88
2024-03-02T21:11:41.814Z,99040.84
2024-03-02T21:14:09.797Z,99045.22
2024-03-02T21:16:37.464Z,99038.50
2024-03-02T21:19:05.056Z,99039.22
2024-03-02T21:21:32.804Z,99040.97
2024-03-02T21:23:59.417Z,99045.63
2024-03-02T21:26:27.444Z,99029.47
2024-03-02T21:28:56.430Z,99032.41
2024-03-02T21:31:23.965Z,99043.41
2024-03-02T21:33:51.584Z,99045.47
2024-03-02T21:36:19.109Z,99027.66
2024-03-02T21:38:46.656Z,99041.28
2024-03-02T21:41:14.291Z,99037.81
2024-03-02T21:43:42.895Z,99034.47
2024-03-02T21:46:13.758Z,99031.19
2024-03-02T21:48:41.666Z,99026.13
2024-03-02T21:51:09.642Z,99015.59
2024-03-02T21:53:38.019Z,99047.03
2024-03-02T21:56:06.579Z,99028.25
2024-03-02T21:58:34.102Z,99018.63
2024-03-02T22:01:01.790Z,99008.50
2024-03-02T22:03:30.746Z,99024.06
2024-03-02T22:05:58.297Z,98982.63
2024-03-02T22:08:28.479Z,99014.22
2024-03-02T22:10:56.431Z,99005.97
2024-03-02T22:13:24.071Z,99009.56
2024-03-02T22:15:51.713Z,98986.66
2024-03-02T22:18:19.925Z,98990.06
2024-03-02T22:20:48.843Z,98985.34
2024-03-02T22:23:16.609Z,98995.28
2024-03-02T22:25:44.199Z,99015.97
2024-03-02T22:28:11.818Z,99006.69
2024-03-02T22:30:39.427Z,99008.06
2024-03-02T22:33:07.074Z,98989.78
2024-03-02T22:35:34.674Z,99011.34
2024-03-02T22:38:03.516Z,98988.53
2024-03-02T22:40:31.817Z,98995.88
2024-03-02T22:42:59.880Z,98988.28
2024-03-02T22:45:27.616Z,98984.75
2024-03-02T22:47:56.070Z,98976.06
2024-03-02T22:50:24.666Z,98985.63
2024-03-02T22:52:52.448Z,98958.16
2024-03-02T22:55:21.636Z,98985.69
2024-03-02T22:57:49.277Z,98985.75
2024-03-02T23:00:35.077Z,98989.56
2024-03-02T23:03:02.791Z,99011.84
2024-03-02T23:05:30.982Z,99002.19
2024-03-02T23:07:58.607Z,98989.88
2024-03-02T23:10:27.554Z,98963.28
2024-03-02T23:12:55.137Z,98970.03
2024-03-02T23:15:22.723Z,98974.09
2024-03-02T23:17:50.889Z,98948.47
2024-03-02T23:20:18.586Z,98963.53
2024-03-02T23:22:47.027Z,98985.63
2024-03-02T23:25:15.620Z,98945.53
2024-03-02T23:27:44.663Z,98972.88
2024-03-02T23:30:12.640Z,98959.94
2024-03-02T23:32:40.256Z,98964.63
2024-03-02T23:35:08.357Z,98960.66
2024-03-02T23:37:35.926Z,98978.25
2024-03-02T23:40:34.257Z,98968.31
2024-03-02T23:43:02.400Z,98968.06
2024-03-02T23:45:29.995Z,98941.63
2024-03-02T23:47:57.567Z,98947.59
2024-03-02T23:50:25.386Z,98952.25
2024-03-02T23:52:52.990Z,98957.66
2024-03-02T23:55:20.889Z,98979.50
2024-03-02T23:57:48.711Z,98976.00
